Weather History for Manteo, NC

Change the Weather History Date:

Friday, June 14, 2013

  Actual Average Record
Temperature  
Mean Temperature 66 °F -  
Max Temperature 73 °F 79 °F 95 °F (1984)
Min Temperature 58 °F 67 °F 58 °F (1985)
Growing Degree Days 16 (Base 50)    
Moisture  
Dew Point 59 °F    
Average Humidity 73    
Maximum Humidity 90    
Minimum Humidity 60    
Precipitation  
Precipitation 0.35 in - - ()
Sea Level Pressure  
Sea Level Pressure 29.81 in    
Wind  
Wind Speed 12 mph (North)    
Max Wind Speed 24 mph    
Max Gust Speed 30 mph    
Visibility 10 miles    
Events Rain    
Averages and records for this station are not official NWS values.
T = Trace of Precipitation, MM = Missing Value Source: NWS Daily Summary

Daily Weather History Graph

Daily Weather History Graph

Search for Another Location

Airport:

Trip Planner

Search our weather history database for the weather conditions in past years. The results will help you decide how hot, cold, wet, or windy it might be!

Date:

Astronomy

Jun. 14, 2013 Rise Set
Actual Time 5:45 AM EDT 8:20 PM EDT
Civil Twilight 5:15 AM EDT 8:50 PM EDT
Nautical Twilight 4:38 AM EDT 9:28 PM EDT
Astronomical Twilight 3:56 AM EDT 10:09 PM EDT
Moon 11:09 AM EDT (6/14) No Moon Set
Length of Visible Light 15h 35m
Length of Day
14h 34m
Waxing Crescent, 30% of the Moon is Illuminated
Jun 14
Waxing Crescent
Jun 16
First Quarter
Jun 23
Full
Jun 30
Last Quarter
Jul 8
New

Hourly Weather History & Observations

Time (EDT) Temp. Dew Point Humidity Pressure Visibility Wind Dir Wind Speed Gust Speed Precip Events Conditions
12:15 AM 73.4 °F 66.9 °F 80% 29.66 in 10.0 mi West 11.5 mph 17.3 mph N/A   Clear
12:35 AM 73.0 °F 66.4 °F 80% 29.65 in 10.0 mi NW 6.9 mph - N/A   Clear
12:55 AM 73.4 °F 66.9 °F 80% 29.66 in 10.0 mi West 9.2 mph - N/A Rain Light Rain
1:15 AM 72.9 °F 67.6 °F 84% 29.68 in 10.0 mi West 11.5 mph - N/A   Light Drizzle
1:35 AM 71.8 °F 68.0 °F 88% 29.68 in 10.0 mi WSW 12.7 mph - N/A Rain Light Rain
1:55 AM 71.8 °F 67.6 °F 87% 29.67 in 10.0 mi West 11.5 mph - N/A   Mostly Cloudy
2:15 AM 71.6 °F 67.6 °F 87% 29.66 in 10.0 mi West 9.2 mph 16.1 mph N/A   Light Drizzle
2:35 AM 72.0 °F 67.5 °F 86% 29.65 in 10.0 mi WNW 11.5 mph 17.3 mph N/A   Scattered Clouds
2:55 AM 71.6 °F 67.1 °F 86% 29.64 in 10.0 mi WNW 10.4 mph 19.6 mph N/A   Clear
3:15 AM 71.8 °F 67.3 °F 86% 29.64 in 10.0 mi NW 8.1 mph 19.6 mph N/A   Scattered Clouds
3:35 AM 71.8 °F 65.1 °F 79% 29.64 in 10.0 mi NNW 9.2 mph 18.4 mph N/A   Scattered Clouds
3:55 AM 71.6 °F 64.4 °F 78% 29.65 in 10.0 mi NNW 13.8 mph 23.0 mph N/A   Scattered Clouds
4:15 AM 71.6 °F 63.5 °F 76% 29.66 in 10.0 mi NNW 11.5 mph 20.7 mph N/A   Scattered Clouds
4:35 AM 71.6 °F 62.1 °F 72% 29.66 in 10.0 mi NW 9.2 mph 18.4 mph N/A   Scattered Clouds
4:55 AM 71.8 °F 58.3 °F 62% 29.67 in 10.0 mi NNW 15.0 mph 21.9 mph N/A   Overcast
5:15 AM 71.4 °F 60.6 °F 69% 29.66 in 10.0 mi NNW 12.7 mph 16.1 mph N/A   Mostly Cloudy
5:35 AM 71.6 °F 58.8 °F 64% 29.67 in 10.0 mi NNW 15.0 mph 21.9 mph N/A   Scattered Clouds
5:55 AM 71.4 °F 58.5 °F 64% 29.67 in 10.0 mi NNW 16.1 mph 23.0 mph N/A   Scattered Clouds
6:15 AM 71.6 °F 58.8 °F 64% 29.68 in 10.0 mi NNW 15.0 mph 27.6 mph N/A   Mostly Cloudy
6:35 AM 70.9 °F 57.7 °F 63% 29.68 in 10.0 mi NNW 15.0 mph 24.2 mph N/A   Mostly Cloudy
6:55 AM 70.2 °F 57.9 °F 65% 29.70 in 10.0 mi NNW 15.0 mph 24.2 mph N/A   Mostly Cloudy
7:15 AM 70.5 °F 57.0 °F 62% 29.70 in 10.0 mi NNW 13.8 mph 24.2 mph N/A   Scattered Clouds
7:35 AM 70.7 °F 57.4 °F 63% 29.71 in 10.0 mi NNW 16.1 mph 25.3 mph N/A   Clear
7:55 AM 70.7 °F 56.8 °F 61% 29.71 in 10.0 mi North 11.5 mph 24.2 mph N/A   Clear
8:15 AM 70.7 °F 57.7 °F 63% 29.72 in 10.0 mi NNW 15.0 mph 25.3 mph N/A   Clear
8:35 AM 70.9 °F 57.9 °F 63% 29.73 in 10.0 mi NNW 13.8 mph 24.2 mph N/A   Clear
8:55 AM 71.2 °F 57.7 °F 62% 29.73 in 10.0 mi North 13.8 mph 24.2 mph N/A   Clear
9:15 AM 71.4 °F 57.4 °F 61% 29.74 in 10.0 mi NNW 9.2 mph 19.6 mph N/A   Scattered Clouds
9:35 AM 72.0 °F 57.4 °F 60% 29.75 in 10.0 mi North 11.5 mph 19.6 mph N/A   Scattered Clouds
9:55 AM 71.4 °F 58.1 °F 63% 29.76 in 10.0 mi NNW 11.5 mph 18.4 mph N/A   Mostly Cloudy
10:15 AM 71.8 °F 58.3 °F 62% 29.77 in 10.0 mi North 11.5 mph 18.4 mph N/A   Mostly Cloudy
10:35 AM 71.2 °F 59.0 °F 65% 29.78 in 10.0 mi NNE 13.8 mph 21.9 mph N/A   Mostly Cloudy
10:55 AM 67.8 °F 60.4 °F 77% 29.80 in 10.0 mi NNE 19.6 mph 25.3 mph N/A   Overcast
11:15 AM 67.8 °F 60.4 °F 77% 29.81 in 10.0 mi North 20.7 mph 28.8 mph N/A   Overcast
11:35 AM 68.9 °F 59.7 °F 72% 29.81 in 10.0 mi NNE 18.4 mph 27.6 mph N/A   Overcast
11:55 AM 70.2 °F 58.8 °F 67% 29.82 in 10.0 mi NNE 18.4 mph 27.6 mph N/A   Mostly Cloudy
12:15 PM 70.2 °F 59.0 °F 68% 29.83 in 10.0 mi NNE 17.3 mph 24.2 mph N/A   Overcast
12:35 PM 67.6 °F 58.6 °F 73% 29.83 in 10.0 mi NNE 17.3 mph 25.3 mph N/A   Overcast
12:55 PM 69.1 °F 59.7 °F 72% 29.84 in 10.0 mi NNE 16.1 mph 29.9 mph N/A   Mostly Cloudy
1:15 PM 68.2 °F 58.1 °F 70% 29.85 in 10.0 mi NNE 15.0 mph 23.0 mph N/A   Overcast
1:35 PM 68.0 °F 58.1 °F 71% 29.85 in 10.0 mi NNE 21.9 mph 27.6 mph N/A   Overcast
1:55 PM 68.5 °F 58.8 °F 71% 29.86 in 10.0 mi NNE 19.6 mph 24.2 mph N/A   Overcast
2:15 PM 68.7 °F 57.9 °F 68% 29.86 in 10.0 mi NNE 16.1 mph 21.9 mph N/A   Overcast
2:35 PM 69.6 °F 58.6 °F 68% 29.86 in 10.0 mi NNE 11.5 mph 23.0 mph N/A   Overcast
2:55 PM 69.8 °F 59.9 °F 71% 29.86 in 10.0 mi NE 12.7 mph 21.9 mph N/A   Mostly Cloudy
3:15 PM 69.1 °F 58.8 °F 70% 29.87 in 10.0 mi NE 13.8 mph 20.7 mph N/A   Overcast
3:35 PM 67.3 °F 58.6 °F 74% 29.88 in 10.0 mi NE 12.7 mph 19.6 mph N/A   Overcast
3:55 PM 68.0 °F 58.5 °F 71% 29.88 in 10.0 mi NNE 16.1 mph 20.7 mph N/A   Overcast
4:15 PM 67.3 °F 58.5 °F 73% 29.89 in 10.0 mi NNE 24.2 mph 29.9 mph N/A   Overcast
4:35 PM 68.5 °F 58.8 °F 71% 29.90 in 10.0 mi NNE 20.7 mph 26.5 mph N/A   Mostly Cloudy
4:55 PM 68.7 °F 58.3 °F 69% 29.90 in 10.0 mi NNE 18.4 mph 25.3 mph N/A   Scattered Clouds
5:15 PM 69.1 °F 57.7 °F 67% 29.91 in 10.0 mi NNE 18.4 mph 27.6 mph N/A   Clear
5:35 PM 68.7 °F 57.9 °F 68% 29.91 in 10.0 mi NNE 16.1 mph 24.2 mph N/A   Scattered Clouds
5:55 PM 68.2 °F 57.0 °F 67% 29.92 in 10.0 mi NNE 18.4 mph 24.2 mph N/A   Scattered Clouds
6:15 PM 67.5 °F 57.2 °F 70% 29.92 in 10.0 mi NE 13.8 mph 20.7 mph N/A   Clear
6:35 PM 67.5 °F 57.0 °F 69% 29.93 in 10.0 mi NNE 12.7 mph 18.4 mph N/A   Clear
6:55 PM 66.9 °F 55.9 °F 68% 29.94 in 10.0 mi NNE 12.7 mph - N/A   Clear
7:15 PM 66.4 °F 56.7 °F 71% 29.94 in 10.0 mi NNE 10.4 mph - N/A   Scattered Clouds
7:35 PM 65.8 °F 57.0 °F 73% 29.95 in 10.0 mi NE 10.4 mph 19.6 mph N/A   Scattered Clouds
7:55 PM 65.3 °F 56.5 °F 73% 29.96 in 10.0 mi NNE 10.4 mph 17.3 mph N/A   Clear
8:15 PM 64.4 °F 56.7 °F 76% 29.96 in 10.0 mi NNE 6.9 mph - N/A   Clear
8:35 PM 64.2 °F 54.9 °F 72% 29.96 in 10.0 mi NE 6.9 mph - N/A   Clear
8:55 PM 63.7 °F 55.0 °F 73% 29.96 in 10.0 mi NE 3.5 mph - N/A   Clear
9:15 PM 62.6 °F 55.0 °F 76% 29.96 in 10.0 mi Calm Calm - N/A   Clear
9:35 PM 62.6 °F 55.6 °F 78% 29.97 in 10.0 mi Calm Calm - N/A   Clear
9:55 PM 61.3 °F 55.9 °F 82% 29.97 in 10.0 mi Calm Calm - N/A   Clear
10:15 PM 59.9 °F 56.1 °F 87% 29.98 in 10.0 mi Calm Calm - N/A   Clear
10:35 PM 59.9 °F 55.9 °F 87% 29.99 in 10.0 mi Calm Calm - N/A   Clear
10:55 PM 59.5 °F 56.3 °F 89% 29.99 in 10.0 mi Calm Calm - N/A   Clear
11:15 PM 59.4 °F 55.9 °F 88% 29.99 in 10.0 mi Calm Calm - N/A   Clear
11:35 PM 58.8 °F 55.9 °F 90% 29.99 in 10.0 mi Calm Calm - N/A   Clear
11:55 PM 59.9 °F 56.1 °F 87% 29.99 in 10.0 mi Calm Calm - N/A   Clear